createdAt,value
2023-01-04T00:00:41.856Z,13.98
2023-01-04T00:04:58.260Z,14.35
2023-01-04T00:09:14.551Z,14.15
2023-01-04T00:13:34.819Z,11.88
2023-01-04T00:17:51.103Z,12.48
2023-01-04T00:22:07.419Z,15.73
2023-01-04T00:26:33.143Z,14.48
2023-01-04T00:30:49.382Z,15.93
2023-01-04T00:35:32.821Z,13.05
2023-01-04T00:44:07.341Z,13.93
2023-01-04T00:48:23.507Z,13.40
2023-01-04T00:52:39.800Z,13.52
2023-01-04T00:56:56.053Z,11.25
2023-01-04T01:01:12.618Z,14.82
2023-01-04T01:05:29.145Z,12.40
2023-01-04T01:09:45.415Z,13.68
2023-01-04T01:14:01.613Z,13.62
2023-01-04T01:18:17.899Z,13.38
2023-01-04T01:22:36.499Z,15.15
2023-01-04T01:26:52.799Z,14.87
2023-01-04T01:31:23.262Z,13.02
2023-01-04T01:35:46.930Z,12.45
2023-01-04T01:40:03.190Z,13.45
2023-01-04T01:44:47.039Z,11.88
2023-01-04T01:49:28.436Z,10.52
2023-01-04T01:53:46.970Z,12.63
2023-01-04T01:58:05.544Z,12.52
2023-01-04T02:02:22.404Z,16.02
2023-01-04T02:06:41.712Z,12.45
2023-01-04T02:10:58.122Z,14.68
2023-01-04T02:15:14.439Z,12.93
2023-01-04T02:20:04.752Z,14.38
2023-01-04T02:24:42.543Z,13.60
2023-01-04T02:29:29.306Z,13.30
2023-01-04T02:33:54.342Z,13.18
2023-01-04T02:38:23.368Z,14.32
2023-01-04T02:43:33.357Z,15.85
2023-01-04T02:48:07.960Z,14.05
2023-01-04T02:52:24.420Z,13.77
2023-01-04T02:57:13.101Z,13.50
2023-01-04T03:02:09.702Z,16.48
2023-01-04T03:06:59.126Z,14.93
2023-01-04T07:25:52.648Z,106.63
2023-01-04T07:30:09.441Z,154.75
2023-01-04T07:34:26.589Z,108.75
2023-01-04T07:38:43.808Z,153.30
2023-01-04T07:43:00.294Z,147.65
2023-01-04T07:47:16.457Z,93.95
2023-01-04T07:51:33.532Z,97.90
2023-01-04T07:55:54.686Z,65.50
2023-01-04T08:00:11.728Z,83.05
2023-01-04T08:04:34.391Z,47.17
2023-01-04T08:08:51.385Z,36.22
2023-01-04T08:13:07.635Z,62.90
2023-01-04T08:17:23.844Z,78.65
2023-01-04T08:21:40.108Z,84.55
2023-01-04T08:25:56.311Z,111.72
2023-01-04T08:30:12.644Z,77.80
2023-01-04T08:34:30.060Z,94.10
2023-01-04T08:39:05.740Z,55.05
2023-01-04T08:43:22.334Z,69.78
2023-01-04T08:47:38.645Z,96.53
2023-01-04T08:51:54.946Z,45.12
2023-01-04T08:56:11.484Z,41.83
2023-01-04T09:00:27.920Z,67.62
2023-01-04T09:04:44.736Z,104.97
2023-01-04T09:09:00.901Z,143.10
2023-01-04T09:13:17.048Z,161.93
2023-01-04T09:17:33.187Z,53.65
2023-01-04T09:21:49.623Z,70.57
2023-01-04T09:26:09.635Z,37.55
2023-01-04T09:30:26.624Z,68.57
2023-01-04T09:34:43.041Z,44.35
2023-01-04T09:39:01.268Z,45.42
2023-01-04T09:43:22.304Z,92.22
2023-01-04T09:47:46.912Z,102.28
2023-01-04T09:52:38.473Z,45.75
2023-01-04T09:56:58.514Z,37.53
2023-01-04T10:01:17.291Z,67.87
2023-01-04T10:05:34.580Z,42.33
2023-01-04T10:09:50.906Z,100.30
2023-01-04T10:14:23.002Z,119.97
2023-01-04T10:19:51.516Z,143.13
2023-01-04T10:23:59.343Z,309.87
2023-01-04T10:28:43.509Z,35.50
2023-01-04T10:33:11.876Z,83.55
2023-01-04T10:37:37.542Z,77.47
2023-01-04T10:42:00.854Z,121.95
2023-01-04T10:46:27.230Z,94.62
2023-01-04T10:50:56.767Z,116.12
2023-01-04T10:55:38.555Z,151.15
2023-01-04T11:00:17.912Z,42.80
2023-01-04T11:04:45.178Z,62.03
2023-01-04T11:09:13.455Z,34.92
2023-01-04T11:13:29.760Z,73.12
2023-01-04T11:17:46.302Z,52.70
2023-01-04T11:22:11.047Z,33.60
2023-01-04T11:26:35.191Z,34.15
2023-01-04T11:31:14.076Z,28.55
2023-01-04T11:35:43.389Z,34.08
2023-01-04T11:40:24.189Z,53.05
2023-01-04T11:44:42.210Z,29.77
2023-01-04T11:48:58.785Z,46.22
2023-01-04T11:53:41.237Z,43.35
2023-01-04T11:58:15.007Z,52.85
2023-01-04T12:07:20.313Z,55.33
2023-01-04T12:11:40.295Z,45.60
2023-01-04T12:16:18.470Z,60.92
2023-01-04T12:20:36.233Z,49.67
2023-01-04T12:25:00.022Z,52.92
2023-01-04T12:29:23.249Z,47.13
2023-01-04T12:33:40.397Z,100.87
2023-01-04T12:37:56.606Z,100.03
2023-01-04T12:42:17.833Z,187.10
2023-01-04T12:47:01.049Z,58.50
2023-01-04T12:51:33.936Z,107.47
2023-01-04T12:55:55.178Z,153.73
2023-01-04T13:00:15.249Z,154.23
2023-01-04T13:04:41.640Z,62.92
2023-01-04T13:08:58.158Z,80.93
2023-01-04T13:13:42.170Z,164.32
2023-01-04T13:17:58.402Z,171.43
2023-01-04T13:22:29.475Z,70.90
2023-01-04T13:26:48.788Z,115.07
2023-01-04T13:31:05.055Z,138.23
2023-01-04T13:35:21.308Z,74.37
2023-01-04T13:39:45.184Z,38.50
2023-01-04T13:44:17.461Z,31.67
2023-01-04T13:48:37.611Z,27.05
2023-01-04T13:53:05.524Z,29.70
2023-01-04T13:57:22.784Z,24.80
2023-01-04T14:01:47.186Z,27.83
2023-01-04T14:06:15.076Z,22.73
2023-01-04T14:10:31.560Z,24.80
2023-01-04T14:14:58.905Z,24.92
2023-01-04T14:19:41.679Z,30.33
2023-01-04T14:23:57.964Z,31.95
2023-01-04T14:28:24.862Z,32.92
2023-01-04T14:32:43.290Z,31.45
2023-01-04T14:37:04.634Z,33.33
2023-01-04T14:41:25.681Z,31.83
2023-01-04T14:45:41.854Z,29.83
2023-01-04T14:49:58.055Z,27.77
2023-01-04T14:54:20.469Z,26.90
2023-01-04T14:58:40.777Z,22.42
2023-01-04T15:02:57.292Z,20.73
2023-01-04T15:07:36.068Z,17.02
2023-01-04T15:11:52.458Z,22.58
2023-01-04T15:16:13.173Z,20.80
2023-01-04T15:20:29.427Z,16.08
2023-01-04T15:24:45.844Z,18.75
2023-01-04T15:29:02.500Z,17.98
2023-01-04T15:33:18.699Z,33.50
2023-01-04T15:37:34.962Z,25.83
2023-01-04T15:42:09.752Z,22.20
2023-01-04T15:46:26.063Z,22.25
2023-01-04T15:50:42.573Z,17.83
2023-01-04T15:54:58.763Z,24.67
2023-01-04T15:59:14.891Z,22.80
2023-01-04T16:03:31.143Z,15.60
2023-01-04T16:07:48.644Z,15.75
2023-01-04T16:12:26.660Z,17.48
2023-01-04T16:16:42.858Z,22.58
2023-01-04T16:21:02.008Z,20.00
2023-01-04T16:25:18.368Z,21.75
2023-01-04T16:29:34.944Z,22.30
2023-01-04T16:33:54.634Z,20.50
2023-01-04T16:38:10.745Z,29.73
2023-01-04T16:42:27.072Z,22.65
2023-01-04T16:46:44.408Z,11.43
2023-01-04T16:51:01.759Z,13.10
2023-01-04T16:55:23.849Z,10.68
2023-01-04T16:59:40.398Z,14.63
2023-01-04T17:03:58.894Z,13.40
2023-01-04T17:08:15.660Z,18.98
2023-01-04T17:12:48.799Z,12.55
2023-01-04T17:21:33.750Z,20.77
2023-01-04T17:25:51.055Z,18.70
2023-01-04T17:30:10.038Z,14.50
2023-01-04T17:34:26.520Z,12.98
2023-01-04T17:38:42.824Z,11.00
2023-01-04T17:42:59.967Z,14.20
2023-01-04T17:47:16.200Z,13.00
2023-01-04T17:51:33.156Z,10.65
2023-01-04T17:55:49.381Z,12.85
2023-01-04T18:00:06.909Z,11.38
2023-01-04T18:04:23.192Z,9.90
2023-01-04T18:08:39.749Z,10.15
2023-01-04T18:12:56.111Z,12.57
2023-01-04T18:17:12.654Z,11.50
2023-01-04T18:21:31.256Z,10.77
2023-01-04T18:25:47.627Z,12.10
2023-01-04T18:30:04.120Z,11.48
2023-01-04T18:34:20.714Z,13.55
2023-01-04T18:38:36.960Z,11.88
2023-01-04T18:42:53.147Z,12.65
2023-01-04T18:47:09.266Z,11.02
2023-01-04T18:51:27.118Z,12.32
2023-01-04T18:55:43.325Z,9.15
2023-01-04T19:00:00.230Z,10.77
2023-01-04T19:04:17.742Z,12.05
2023-01-04T19:08:34.249Z,11.20
2023-01-04T19:12:50.513Z,10.23
2023-01-04T19:17:06.827Z,13.62
2023-01-04T19:21:23.126Z,13.23
2023-01-04T19:25:40.366Z,13.35
2023-01-04T19:29:56.534Z,12.10
2023-01-04T19:34:12.699Z,14.50
2023-01-04T19:38:28.868Z,14.18
2023-01-04T19:42:45.021Z,13.73
2023-01-04T19:47:01.219Z,11.30
2023-01-04T19:51:18.084Z,13.95
2023-01-04T19:55:34.513Z,14.38
2023-01-04T19:59:51.172Z,15.65
2023-01-04T20:04:07.331Z,14.43
2023-01-04T20:08:23.609Z,16.08
2023-01-04T20:12:39.839Z,14.75
2023-01-04T20:16:56.088Z,15.38
2023-01-04T20:21:14.252Z,16.10
2023-01-04T20:25:30.474Z,14.68
2023-01-04T20:29:46.740Z,13.93
2023-01-04T20:34:02.961Z,13.80
2023-01-04T20:38:19.204Z,13.68
2023-01-04T20:42:54.117Z,14.68
2023-01-04T20:47:10.363Z,16.87
2023-01-04T20:51:28.290Z,15.88
2023-01-04T20:55:44.548Z,11.80
2023-01-04T21:00:00.772Z,10.80
2023-01-04T21:04:17.950Z,13.18
2023-01-04T21:08:35.799Z,14.77
2023-01-04T21:12:51.950Z,14.02
2023-01-04T21:17:08.106Z,13.90
2023-01-04T21:21:24.323Z,13.35
2023-01-04T21:25:41.420Z,12.02
2023-01-04T21:29:57.681Z,12.68
2023-01-04T21:34:18.259Z,12.95
2023-01-04T21:38:37.125Z,13.98
2023-01-04T21:42:53.470Z,12.95
2023-01-04T21:47:09.629Z,14.55
2023-01-04T21:51:25.999Z,17.02
2023-01-04T21:55:42.200Z,15.13
2023-01-04T21:59:58.405Z,16.10
2023-01-04T22:04:14.619Z,12.57
2023-01-04T22:08:31.148Z,11.35
2023-01-04T22:12:49.941Z,15.02
2023-01-04T22:17:06.140Z,24.40
2023-01-04T22:21:26.727Z,21.25
2023-01-04T22:25:42.976Z,16.92
2023-01-04T22:29:59.134Z,23.00
2023-01-04T22:34:17.140Z,30.35
2023-01-04T22:38:38.343Z,27.85
2023-01-04T22:42:54.553Z,27.17
2023-01-04T22:47:10.825Z,21.27
2023-01-04T22:51:27.784Z,19.23
2023-01-04T22:56:17.487Z,17.95
2023-01-04T23:00:20.355Z,20.58
2023-01-04T23:04:36.509Z,18.02
2023-01-04T23:09:01.215Z,16.02
2023-01-04T23:13:17.466Z,16.55
2023-01-04T23:17:33.701Z,21.15
2023-01-04T23:21:49.896Z,19.65
2023-01-04T23:26:07.860Z,18.00
2023-01-04T23:30:24.062Z,21.70
2023-01-04T23:34:40.232Z,20.20
2023-01-04T23:38:59.122Z,16.77
2023-01-04T23:43:15.328Z,17.85
2023-01-04T23:47:31.452Z,18.52
2023-01-04T23:51:47.695Z,17.87
2023-01-04T23:56:13.511Z,20.58
